sensor_id;sensor_type;location;lat;lon;timestamp;pressure;altitude;pressure_sealevel;temperature;humidity
69221;BME280;56331;51.992;20.910;2022-12-18T00:02:02;101470.36;;;20.87;32.38
69221;BME280;56331;51.992;20.910;2022-12-18T00:04:29;101473.13;;;20.87;32.37
69221;BME280;56331;51.992;20.910;2022-12-18T00:06:55;101480.91;;;20.85;32.35
69221;BME280;56331;51.992;20.910;2022-12-18T00:09:22;101484.77;;;20.87;32.33
69221;BME280;56331;51.992;20.910;2022-12-18T00:11:48;101486.45;;;20.85;32.29
69221;BME280;56331;51.992;20.910;2022-12-18T00:14:15;101503.02;;;20.88;32.28
69221;BME280;56331;51.992;20.910;2022-12-18T00:16:44;101493.08;;;20.87;32.32
69221;BME280;56331;51.992;20.910;2022-12-18T00:19:11;101491.13;;;20.87;32.38
69221;BME280;56331;51.992;20.910;2022-12-18T00:21:38;101493.66;;;20.86;32.27
69221;BME280;56331;51.992;20.910;2022-12-18T00:24:07;101497.80;;;20.86;32.08
69221;BME280;56331;51.992;20.910;2022-12-18T00:26:36;101498.91;;;20.85;32.13
69221;BME280;56331;51.992;20.910;2022-12-18T00:29:06;101502.25;;;20.85;32.35
69221;BME280;56331;51.992;20.910;2022-12-18T00:31:33;101500.87;;;20.85;32.18
69221;BME280;56331;51.992;20.910;2022-12-18T00:34:00;101501.44;;;20.84;32.09
69221;BME280;56331;51.992;20.910;2022-12-18T00:36:32;101503.59;;;20.87;32.12
69221;BME280;56331;51.992;20.910;2022-12-18T00:39:00;101503.07;;;20.85;32.12
69221;BME280;56331;51.992;20.910;2022-12-18T00:41:28;101512.77;;;20.85;32.15
69221;BME280;56331;51.992;20.910;2022-12-18T00:44:15;101512.77;;;20.85;32.19
69221;BME280;56331;51.992;20.910;2022-12-18T00:46:42;101518.05;;;20.84;32.06
69221;BME280;56331;51.992;20.910;2022-12-18T00:49:14;101526.61;;;20.85;32.13
69221;BME280;56331;51.992;20.910;2022-12-18T00:51:41;101532.15;;;20.85;32.12
69221;BME280;56331;51.992;20.910;2022-12-18T00:54:07;101529.66;;;20.86;32.07
69221;BME280;56331;51.992;20.910;2022-12-18T00:56:35;101531.91;;;20.84;32.03
69221;BME280;56331;51.992;20.910;2022-12-18T00:59:03;101533.29;;;20.84;32.17
69221;BME280;56331;51.992;20.910;2022-12-18T01:01:29;101537.44;;;20.84;32.09
69221;BME280;56331;51.992;20.910;2022-12-18T01:04:00;101544.12;;;20.83;32.04
69221;BME280;56331;51.992;20.910;2022-12-18T01:06:27;101540.21;;;20.84;32.09
69221;BME280;56331;51.992;20.910;2022-12-18T01:08:54;101546.32;;;20.84;32.21
69221;BME280;56331;51.992;20.910;2022-12-18T01:11:21;101551.05;;;20.83;32.04
69221;BME280;56331;51.992;20.910;2022-12-18T01:13:48;101557.97;;;20.83;32.13
69221;BME280;56331;51.992;20.910;2022-12-18T01:16:16;101555.20;;;20.83;32.10
69221;BME280;56331;51.992;20.910;2022-12-18T01:18:43;101554.36;;;20.83;31.92
69221;BME280;56331;51.992;20.910;2022-12-18T01:21:14;101560.98;;;20.84;31.96
69221;BME280;56331;51.992;20.910;2022-12-18T01:23:45;101566.28;;;20.83;31.94
69221;BME280;56331;51.992;20.910;2022-12-18T01:29:00;101568.77;;;20.82;31.90
69221;BME280;56331;51.992;20.910;2022-12-18T01:31:29;101574.31;;;20.82;31.90
69221;BME280;56331;51.992;20.910;2022-12-18T01:33:56;101571.82;;;20.83;31.77
69221;BME280;56331;51.992;20.910;2022-12-18T01:36:28;101572.92;;;20.82;31.81
69221;BME280;56331;51.992;20.910;2022-12-18T01:38:55;101569.34;;;20.82;31.84
69221;BME280;56331;51.992;20.910;2022-12-18T01:41:24;101568.52;;;20.81;31.91
69221;BME280;56331;51.992;20.910;2022-12-18T01:43:56;101575.70;;;20.82;31.92
69221;BME280;56331;51.992;20.910;2022-12-18T01:46:24;101577.08;;;20.82;32.01
69221;BME280;56331;51.992;20.910;2022-12-18T01:48:55;101576.55;;;20.80;31.81
69221;BME280;56331;51.992;20.910;2022-12-18T01:51:21;101586.53;;;20.81;31.76
69221;BME280;56331;51.992;20.910;2022-12-18T01:53:48;101595.08;;;20.82;31.80
69221;BME280;56331;51.992;20.910;2022-12-18T01:56:17;101589.30;;;20.81;31.77
69221;BME280;56331;51.992;20.910;2022-12-18T01:59:02;101604.25;;;20.80;31.95
69221;BME280;56331;51.992;20.910;2022-12-18T02:01:31;101600.09;;;20.80;31.83
69221;BME280;56331;51.992;20.910;2022-12-18T02:04:25;101602.33;;;20.81;31.62
69221;BME280;56331;51.992;20.910;2022-12-18T02:07:17;101612.84;;;20.81;31.84
69221;BME280;56331;51.992;20.910;2022-12-18T02:09:23;101615.03;;;20.82;31.93
69221;BME280;56331;51.992;20.910;2022-12-18T02:12:40;101621.19;;;20.79;31.83
69221;BME280;56331;51.992;20.910;2022-12-18T02:15:07;101623.39;;;20.79;31.67
69221;BME280;56331;51.992;20.910;2022-12-18T02:17:41;101628.36;;;20.80;31.89
69221;BME280;56331;51.992;20.910;2022-12-18T02:20:35;101629.17;;;20.80;31.83
69221;BME280;56331;51.992;20.910;2022-12-18T02:28:28;101640.00;;;20.79;31.52
69221;BME280;56331;51.992;20.910;2022-12-18T02:30:58;101645.55;;;20.79;31.67
69221;BME280;56331;51.992;20.910;2022-12-18T02:33:27;101651.66;;;20.79;31.70
69221;BME280;56331;51.992;20.910;2022-12-18T02:35:56;101650.83;;;20.78;31.51
69221;BME280;56331;51.992;20.910;2022-12-18T02:38:24;101655.23;;;20.79;31.51
69221;BME280;56331;51.992;20.910;2022-12-18T02:40:53;101653.85;;;20.79;31.51
69221;BME280;56331;51.992;20.910;2022-12-18T02:43:20;101651.90;;;20.80;31.50
69221;BME280;56331;51.992;20.910;2022-12-18T02:45:55;101660.77;;;20.79;31.61
69221;BME280;56331;51.992;20.910;2022-12-18T02:48:25;101659.39;;;20.79;31.50
69221;BME280;56331;51.992;20.910;2022-12-18T02:53:45;101666.61;;;20.78;31.70
69221;BME280;56331;51.992;20.910;2022-12-18T02:58:47;101676.01;;;20.79;31.54
69221;BME280;56331;51.992;20.910;2022-12-18T03:01:38;101679.38;;;20.76;31.30
69221;BME280;56331;51.992;20.910;2022-12-18T03:04:16;101680.45;;;20.78;31.49
69221;BME280;56331;51.992;20.910;2022-12-18T03:06:40;101686.84;;;20.78;30.76
69221;BME280;56331;51.992;20.910;2022-12-18T03:09:10;101690.42;;;20.79;30.39
69221;BME280;56331;51.992;20.910;2022-12-18T03:11:40;101697.03;;;20.80;30.18
69221;BME280;56331;51.992;20.910;2022-12-18T03:14:28;101698.41;;;20.80;30.03
69221;BME280;56331;51.992;20.910;2022-12-18T03:17:00;101708.11;;;20.80;29.89
69221;BME280;56331;51.992;20.910;2022-12-18T03:19:27;101711.16;;;20.81;29.77
69221;BME280;56331;51.992;20.910;2022-12-18T03:21:56;101713.40;;;20.79;29.52
69221;BME280;56331;51.992;20.910;2022-12-18T03:24:25;101713.64;;;20.80;29.47
69221;BME280;56331;51.992;20.910;2022-12-18T03:26:55;101723.34;;;20.80;29.29
69221;BME280;56331;51.992;20.910;2022-12-18T03:32:02;101726.95;;;20.81;29.14
69221;BME280;56331;51.992;20.910;2022-12-18T03:34:32;101731.92;;;20.81;29.04
69221;BME280;56331;51.992;20.910;2022-12-18T03:37:03;101730.55;;;20.81;28.92
69221;BME280;56331;51.992;20.910;2022-12-18T03:39:30;101739.14;;;20.80;28.84
69221;BME280;56331;51.992;20.910;2022-12-18T03:48:04;101737.47;;;20.81;28.56
69221;BME280;56331;51.992;20.910;2022-12-18T03:50:51;101754.33;;;20.82;28.45
69221;BME280;56331;51.992;20.910;2022-12-18T03:56:05;101747.73;;;20.81;28.42
69221;BME280;56331;51.992;20.910;2022-12-18T03:58:34;101755.19;;;20.80;28.31
69221;BME280;56331;51.992;20.910;2022-12-18T04:01:03;101758.80;;;20.81;28.19
69221;BME280;56331;51.992;20.910;2022-12-18T04:03:32;101763.50;;;20.80;28.16
69221;BME280;56331;51.992;20.910;2022-12-18T04:06:02;101776.53;;;20.80;29.01
69221;BME280;56331;51.992;20.910;2022-12-18T04:08:29;101772.13;;;20.79;29.30
69221;BME280;56331;51.992;20.910;2022-12-18T04:10:56;101773.23;;;20.78;29.43
69221;BME280;56331;51.992;20.910;2022-12-18T04:13:27;101775.18;;;20.77;29.51
69221;BME280;56331;51.992;20.910;2022-12-18T04:15:53;101771.84;;;20.78;29.53
69221;BME280;56331;51.992;20.910;2022-12-18T04:18:20;101773.55;;;20.76;29.49
69221;BME280;56331;51.992;20.910;2022-12-18T04:20:46;101774.93;;;20.76;29.57
69221;BME280;56331;51.992;20.910;2022-12-18T04:23:13;101777.42;;;20.75;29.60
69221;BME280;56331;51.992;20.910;2022-12-18T04:25:40;101776.59;;;20.74;29.63
69221;BME280;56331;51.992;20.910;2022-12-18T04:28:06;101775.78;;;20.74;29.61
69221;BME280;56331;51.992;20.910;2022-12-18T04:30:33;101783.27;;;20.73;29.73
69221;BME280;56331;51.992;20.910;2022-12-18T04:33:00;101792.15;;;20.73;29.64
69221;BME280;56331;51.992;20.910;2022-12-18T04:35:26;101786.33;;;20.72;29.71
69221;BME280;56331;51.992;20.910;2022-12-18T04:37:56;101793.81;;;20.71;29.67
69221;BME280;56331;51.992;20.910;2022-12-18T04:40:24;101799.92;;;20.71;29.65
69221;BME280;56331;51.992;20.910;2022-12-18T04:42:53;101809.61;;;20.71;29.67
69221;BME280;56331;51.992;20.910;2022-12-18T04:45:19;101814.88;;;20.70;29.68
69221;BME280;56331;51.992;20.910;2022-12-18T04:47:46;101819.02;;;20.70;29.69
69221;BME280;56331;51.992;20.910;2022-12-18T04:50:12;101826.52;;;20.69;29.67
69221;BME280;56331;51.992;20.910;2022-12-18T04:52:38;101827.90;;;20.69;29.65
69221;BME280;56331;51.992;20.910;2022-12-18T04:55:06;101834.25;;;20.70;29.58
69221;BME280;56331;51.992;20.910;2022-12-18T04:57:32;101837.34;;;20.68;29.63
69221;BME280;56331;51.992;20.910;2022-12-18T04:59:59;101837.59;;;20.69;29.54
69221;BME280;56331;51.992;20.910;2022-12-18T05:02:25;101832.63;;;20.69;29.55
69221;BME280;56331;51.992;20.910;2022-12-18T05:04:52;101845.33;;;20.70;29.58
69221;BME280;56331;51.992;20.910;2022-12-18T05:07:19;101845.90;;;20.69;29.63
69221;BME280;56331;51.992;20.910;2022-12-18T05:09:46;101848.38;;;20.71;29.54
69221;BME280;56331;51.992;20.910;2022-12-18T05:12:12;101853.64;;;20.70;29.55
69221;BME280;56331;51.992;20.910;2022-12-18T05:14:39;101860.03;;;20.70;29.54
69221;BME280;56331;51.992;20.910;2022-12-18T05:17:05;101857.26;;;20.70;29.74
69221;BME280;56331;51.992;20.910;2022-12-18T05:19:32;101860.56;;;20.70;29.55
69221;BME280;56331;51.992;20.910;2022-12-18T05:21:58;101866.67;;;20.69;29.59
69221;BME280;56331;51.992;20.910;2022-12-18T05:24:25;101876.08;;;20.71;29.64
69221;BME280;56331;51.992;20.910;2022-12-18T05:26:51;101868.34;;;20.70;29.66
69221;BME280;56331;51.992;20.910;2022-12-18T05:29:21;101872.20;;;20.69;29.71
69221;BME280;56331;51.992;20.910;2022-12-18T05:31:47;101878.56;;;20.70;29.71
69221;BME280;56331;51.992;20.910;2022-12-18T05:34:14;101877.17;;;20.70;29.83
69221;BME280;56331;51.992;20.910;2022-12-18T05:36:40;101874.41;;;20.70;29.76
69221;BME280;56331;51.992;20.910;2022-12-18T05:39:07;101877.49;;;20.68;29.75
69221;BME280;56331;51.992;20.910;2022-12-18T05:41:34;101883.03;;;20.68;29.83
69221;BME280;56331;51.992;20.910;2022-12-18T05:44:01;101879.44;;;20.68;29.81
69221;BME280;56331;51.992;20.910;2022-12-18T05:46:30;101883.03;;;20.68;30.00
69221;BME280;56331;51.992;20.910;2022-12-18T05:48:59;101885.55;;;20.67;29.89
69221;BME280;56331;51.992;20.910;2022-12-18T05:51:27;101887.75;;;20.68;29.89
69221;BME280;56331;51.992;20.910;2022-12-18T05:53:54;101891.09;;;20.67;29.80
69221;BME280;56331;51.992;20.910;2022-12-18T05:56:22;101892.72;;;20.68;30.05
69221;BME280;56331;51.992;20.910;2022-12-18T05:58:51;101894.11;;;20.68;30.01
69221;BME280;56331;51.992;20.910;2022-12-18T06:01:21;101898.01;;;20.67;30.09
69221;BME280;56331;51.992;20.910;2022-12-18T06:03:48;101898.01;;;20.67;29.96
69221;BME280;56331;51.992;20.910;2022-12-18T06:06:22;101910.72;;;20.68;29.47
69221;BME280;56331;51.992;20.910;2022-12-18T06:08:49;101917.33;;;20.70;29.18
69221;BME280;56331;51.992;20.910;2022-12-18T06:11:19;101927.59;;;20.69;29.02
69221;BME280;56331;51.992;20.910;2022-12-18T06:13:46;101925.39;;;20.69;28.88
69221;BME280;56331;51.992;20.910;2022-12-18T06:16:12;101929.80;;;20.70;28.82
69221;BME280;56331;51.992;20.910;2022-12-18T06:18:39;101938.10;;;20.70;28.66
69221;BME280;56331;51.992;20.910;2022-12-18T06:21:05;101942.25;;;20.70;28.60
69221;BME280;56331;51.992;20.910;2022-12-18T06:23:32;101950.03;;;20.70;28.56
69221;BME280;56331;51.992;20.910;2022-12-18T06:25:58;101958.34;;;20.70;28.46
69221;BME280;56331;51.992;20.910;2022-12-18T06:28:27;101965.27;;;20.70;28.35
69221;BME280;56331;51.992;20.910;2022-12-18T06:30:53;101972.44;;;20.71;28.22
69221;BME280;56331;51.992;20.910;2022-12-18T06:33:20;101979.61;;;20.72;28.07
69221;BME280;56331;51.992;20.910;2022-12-18T06:35:46;101982.38;;;20.72;28.06
69221;BME280;56331;51.992;20.910;2022-12-18T06:38:14;101980.17;;;20.72;27.98
69221;BME280;56331;51.992;20.910;2022-12-18T06:40:41;101987.11;;;20.72;27.91
69221;BME280;56331;51.992;20.910;2022-12-18T06:43:07;101994.03;;;20.72;27.87
69221;BME280;56331;51.992;20.910;2022-12-18T06:45:34;102002.34;;;20.72;27.73
69221;BME280;56331;51.992;20.910;2022-12-18T06:48:00;102001.52;;;20.71;27.68
69221;BME280;56331;51.992;20.910;2022-12-18T06:50:27;101999.85;;;20.73;27.67
69221;BME280;56331;51.992;20.910;2022-12-18T06:52:54;102013.95;;;20.74;27.59
69221;BME280;56331;51.992;20.910;2022-12-18T06:55:21;102012.31;;;20.73;27.54
69221;BME280;56331;51.992;20.910;2022-12-18T06:57:48;102019.23;;;20.73;27.52
69221;BME280;56331;51.992;20.910;2022-12-18T07:00:21;102016.18;;;20.72;27.46
69221;BME280;56331;51.992;20.910;2022-12-18T07:02:45;102013.41;;;20.72;27.41
69221;BME280;56331;51.992;20.910;2022-12-18T07:05:11;102006.77;;;20.73;27.33
69221;BME280;56331;51.992;20.910;2022-12-18T07:07:38;102011.20;;;20.71;27.29
69221;BME280;56331;51.992;20.910;2022-12-18T07:10:05;102020.08;;;20.71;27.26
69221;BME280;56331;51.992;20.910;2022-12-18T07:12:32;102027.26;;;20.72;27.33
69221;BME280;56331;51.992;20.910;2022-12-18T07:14:58;102028.64;;;20.72;27.36
69221;BME280;56331;51.992;20.910;2022-12-18T07:17:25;102039.16;;;20.72;27.40
69221;BME280;56331;51.992;20.910;2022-12-18T07:19:51;102036.95;;;20.72;27.36
69221;BME280;56331;51.992;20.910;2022-12-18T07:22:18;102044.70;;;20.72;27.38
69221;BME280;56331;51.992;20.910;2022-12-18T07:24:44;102047.47;;;20.72;27.42
69221;BME280;56331;51.992;20.910;2022-12-18T07:27:11;102058.01;;;20.73;27.47
69221;BME280;56331;51.992;20.910;2022-12-18T07:29:37;102064.93;;;20.73;27.54
69221;BME280;56331;51.992;20.910;2022-12-18T07:32:04;102067.70;;;20.73;27.60
69221;BME280;56331;51.992;20.910;2022-12-18T07:34:31;102061.31;;;20.72;27.62
69221;BME280;56331;51.992;20.910;2022-12-18T07:36:57;102067.70;;;20.73;27.68
69221;BME280;56331;51.992;20.910;2022-12-18T07:39:24;102064.93;;;20.73;27.71
69221;BME280;56331;51.992;20.910;2022-12-18T07:41:50;102069.09;;;20.73;27.68
69221;BME280;56331;51.992;20.910;2022-12-18T07:44:35;102073.24;;;20.73;27.73
69221;BME280;56331;51.992;20.910;2022-12-18T07:47:02;102075.72;;;20.72;27.82
69221;BME280;56331;51.992;20.910;2022-12-18T07:49:28;102084.32;;;20.73;27.80
69221;BME280;56331;51.992;20.910;2022-12-18T07:51:56;102089.01;;;20.72;27.81
69221;BME280;56331;51.992;20.910;2022-12-18T07:54:24;102085.95;;;20.74;27.79
69221;BME280;56331;51.992;20.910;2022-12-18T07:56:51;102083.19;;;20.74;27.95
69221;BME280;56331;51.992;20.910;2022-12-18T07:59:18;102088.47;;;20.73;28.05
69221;BME280;56331;51.992;20.910;2022-12-18T08:01:44;102097.03;;;20.74;28.01
69221;BME280;56331;51.992;20.910;2022-12-18T08:04:11;102105.09;;;20.73;28.42
69221;BME280;56331;51.992;20.910;2022-12-18T08:06:37;102104.80;;;20.72;29.09
69221;BME280;56331;51.992;20.910;2022-12-18T08:09:04;102111.47;;;20.71;29.55
69221;BME280;56331;51.992;20.910;2022-12-18T08:11:31;102114.24;;;20.71;29.69
69221;BME280;56331;51.992;20.910;2022-12-18T08:13:58;102121.73;;;20.70;30.00
69221;BME280;56331;51.992;20.910;2022-12-18T08:16:24;102119.78;;;20.71;30.11
69221;BME280;56331;51.992;20.910;2022-12-18T08:18:52;102126.14;;;20.71;30.48
69221;BME280;56331;51.992;20.910;2022-12-18T08:21:25;102128.09;;;20.71;30.37
69221;BME280;56331;51.992;20.910;2022-12-18T08:23:53;102134.19;;;20.70;30.75
69221;BME280;56331;51.992;20.910;2022-12-18T08:26:21;102138.87;;;20.70;30.80
69221;BME280;56331;51.992;20.910;2022-12-18T08:28:49;102147.47;;;20.71;30.95
69221;BME280;56331;51.992;20.910;2022-12-18T08:31:16;102148.57;;;20.70;31.22
69221;BME280;56331;51.992;20.910;2022-12-18T08:33:42;102152.73;;;20.70;31.32
69221;BME280;56331;51.992;20.910;2022-12-18T08:36:11;102154.96;;;20.70;31.52
69221;BME280;56331;51.992;20.910;2022-12-18T08:38:38;102167.42;;;20.70;31.52
69221;BME280;56331;51.992;20.910;2022-12-18T08:41:09;102160.78;;;20.69;31.69
69221;BME280;56331;51.992;20.910;2022-12-18T08:43:36;102158.83;;;20.69;31.78
69221;BME280;56331;51.992;20.910;2022-12-18T08:46:22;102167.95;;;20.70;31.68
69221;BME280;56331;51.992;20.910;2022-12-18T08:48:50;102154.96;;;20.70;31.74
69221;BME280;56331;51.992;20.910;2022-12-18T08:51:17;102160.21;;;20.69;31.83
69221;BME280;56331;51.992;20.910;2022-12-18T08:53:44;102167.42;;;20.70;32.14
69221;BME280;56331;51.992;20.910;2022-12-18T08:56:12;102164.66;;;20.70;32.48
69221;BME280;56331;51.992;20.910;2022-12-18T08:58:39;102174.33;;;20.73;32.86
69221;BME280;56331;51.992;20.910;2022-12-18T09:01:08;102169.33;;;20.72;33.19
69221;BME280;56331;51.992;20.910;2022-12-18T09:03:35;102171.56;;;20.73;33.40
69221;BME280;56331;51.992;20.910;2022-12-18T09:06:01;102179.87;;;20.73;33.42
69221;BME280;56331;51.992;20.910;2022-12-18T09:08:28;102188.16;;;20.75;33.54
69221;BME280;56331;51.992;20.910;2022-12-18T09:10:55;102180.92;;;20.77;33.45
69221;BME280;56331;51.992;20.910;2022-12-18T09:13:22;102190.60;;;20.80;33.59
69221;BME280;56331;51.992;20.910;2022-12-18T09:15:51;102196.42;;;20.81;33.49
69221;BME280;56331;51.992;20.910;2022-12-18T09:18:19;102193.64;;;20.83;33.48
69221;BME280;56331;51.992;20.910;2022-12-18T09:20:47;102197.23;;;20.84;33.52
69221;BME280;56331;51.992;20.910;2022-12-18T09:23:14;102203.57;;;20.87;33.64
69221;BME280;56331;51.992;20.910;2022-12-18T09:25:40;102207.98;;;20.88;33.31
69221;BME280;56331;51.992;20.910;2022-12-18T09:28:16;102208.27;;;20.89;33.34
69221;BME280;56331;51.992;20.910;2022-12-18T09:30:48;102215.17;;;20.91;33.44
69221;BME280;56331;51.992;20.910;2022-12-18T09:33:15;102219.02;;;20.93;33.31
69221;BME280;56331;51.992;20.910;2022-12-18T09:35:43;102219.86;;;20.96;32.23
69221;BME280;56331;51.992;20.910;2022-12-18T09:38:20;102213.44;;;20.98;31.75
69221;BME280;56331;51.992;20.910;2022-12-18T09:40:46;102218.70;;;21.00;31.39
69221;BME280;56331;51.992;20.910;2022-12-18T09:43:18;102224.50;;;21.01;31.15
69221;BME280;56331;51.992;20.910;2022-12-18T09:45:44;102213.71;;;21.02;30.93
69221;BME280;56331;51.992;20.910;2022-12-18T09:48:20;102207.88;;;21.01;30.62
69221;BME280;56331;51.992;20.910;2022-12-18T09:50:48;102215.35;;;21.03;30.53
69221;BME280;56331;51.992;20.910;2022-12-18T09:53:22;102212.30;;;21.04;30.32
69221;BME280;56331;51.992;20.910;2022-12-18T09:55:51;102213.69;;;21.04;30.19
69221;BME280;56331;51.992;20.910;2022-12-18T09:58:32;102212.55;;;21.05;30.12
69221;BME280;56331;51.992;20.910;2022-12-18T10:00:59;102211.17;;;21.05;29.98
69221;BME280;56331;51.992;20.910;2022-12-18T10:03:25;102210.35;;;21.05;30.07
69221;BME280;56331;51.992;20.910;2022-12-18T10:14:04;102226.45;;;21.00;31.74
69221;BME280;56331;51.992;20.910;2022-12-18T10:16:36;102242.26;;;21.00;31.69
69221;BME280;56331;51.992;20.910;2022-12-18T10:24:44;102240.07;;;20.96;32.02
69221;BME280;56331;51.992;20.910;2022-12-18T10:27:18;102236.73;;;20.97;32.34
69221;BME280;56331;51.992;20.910;2022-12-18T10:29:46;102230.37;;;20.96;32.64
69221;BME280;56331;51.992;20.910;2022-12-18T10:32:15;102230.37;;;20.96;33.01
69221;BME280;56331;51.992;20.910;2022-12-18T10:34:49;102233.14;;;20.96;33.15
69221;BME280;56331;51.992;20.910;2022-12-18T10:37:16;102224.02;;;20.96;33.31
69221;BME280;56331;51.992;20.910;2022-12-18T10:39:43;102225.93;;;20.95;33.44
69221;BME280;56331;51.992;20.910;2022-12-18T10:42:18;102226.23;;;20.94;33.62
69221;BME280;56331;51.992;20.910;2022-12-18T10:44:45;102230.09;;;20.95;33.63
69221;BME280;56331;51.992;20.910;2022-12-18T10:47:14;102237.02;;;20.95;33.87
69221;BME280;56331;51.992;20.910;2022-12-18T10:49:50;102236.19;;;20.95;34.05
69221;BME280;56331;51.992;20.910;2022-12-18T10:52:23;102240.34;;;20.95;34.46
69221;BME280;56331;51.992;20.910;2022-12-18T10:54:52;102236.19;;;20.95;34.39
69221;BME280;56331;51.992;20.910;2022-12-18T10:57:32;102230.94;;;20.96;34.44
69221;BME280;56331;51.992;20.910;2022-12-18T11:00:19;102232.60;;;20.94;34.62
69221;BME280;56331;51.992;20.910;2022-12-18T11:02:36;102233.98;;;20.94;34.66
69221;BME280;56331;51.992;20.910;2022-12-18T11:05:25;102236.75;;;20.94;34.90
69221;BME280;56331;51.992;20.910;2022-12-18T11:07:52;102238.96;;;20.95;34.91
69221;BME280;56331;51.992;20.910;2022-12-18T11:10:26;102241.19;;;20.93;34.84
69221;BME280;56331;51.992;20.910;2022-12-18T11:12:53;102247.58;;;20.93;34.62
69221;BME280;56331;51.992;20.910;2022-12-18T11:15:23;102247.58;;;20.93;34.84
69221;BME280;56331;51.992;20.910;2022-12-18T11:17:50;102249.22;;;20.94;34.75
69221;BME280;56331;51.992;20.910;2022-12-18T11:20:34;102240.37;;;20.92;34.69
69221;BME280;56331;51.992;20.910;2022-12-18T11:23:04;102242.57;;;20.93;34.38
69221;BME280;56331;51.992;20.910;2022-12-18T11:25:32;102237.59;;;20.92;34.38
69221;BME280;56331;51.992;20.910;2022-12-18T11:34:00;102242.88;;;20.91;34.82
69221;BME280;56331;51.992;20.910;2022-12-18T11:36:30;102247.86;;;20.92;34.82
69221;BME280;56331;51.992;20.910;2022-12-18T11:38:57;102244.27;;;20.91;34.54
69221;BME280;56331;51.992;20.910;2022-12-18T11:44:40;102239.82;;;20.90;34.37
69221;BME280;56331;51.992;20.910;2022-12-18T11:47:36;102245.92;;;20.90;34.38
69221;BME280;56331;51.992;20.910;2022-12-18T11:50:03;102240.67;;;20.91;34.43
69221;BME280;56331;51.992;20.910;2022-12-18T11:52:38;102237.34;;;20.91;34.37
69221;BME280;56331;51.992;20.910;2022-12-18T11:55:14;102233.75;;;20.91;34.32
69221;BME280;56331;51.992;20.910;2022-12-18T12:00:30;102248.42;;;20.91;34.51
69221;BME280;56331;51.992;20.910;2022-12-18T12:03:13;102246.22;;;20.91;34.43
69221;BME280;56331;51.992;20.910;2022-12-18T12:08:33;102249.22;;;20.94;33.44
69221;BME280;56331;51.992;20.910;2022-12-18T12:11:29;102256.97;;;20.95;33.26
69221;BME280;56331;51.992;20.910;2022-12-18T12:22:13;102257.21;;;20.98;32.50
69221;BME280;56331;51.992;20.910;2022-12-18T12:30:11;102273.30;;;20.99;32.30
69221;BME280;56331;51.992;20.910;2022-12-18T12:38:42;102281.63;;;20.96;33.08
69221;BME280;56331;51.992;20.910;2022-12-18T12:41:14;102282.21;;;20.93;33.05
69221;BME280;56331;51.992;20.910;2022-12-18T12:44:04;102285.26;;;20.92;33.29
69221;BME280;56331;51.992;20.910;2022-12-18T12:46:34;102292.75;;;20.91;33.26
69221;BME280;56331;51.992;20.910;2022-12-18T12:49:02;102292.19;;;20.92;33.38
69221;BME280;56331;51.992;20.910;2022-12-18T12:51:33;102291.08;;;20.90;33.20
69221;BME280;56331;51.992;20.910;2022-12-18T12:54:02;102292.75;;;20.91;33.43
69221;BME280;56331;51.992;20.910;2022-12-18T12:56:43;102293.31;;;20.91;33.44
69221;BME280;56331;51.992;20.910;2022-12-18T12:59:25;102307.70;;;20.90;33.40
69221;BME280;56331;51.992;20.910;2022-12-18T13:04:57;102329.86;;;20.90;33.29
69221;BME280;56331;51.992;20.910;2022-12-18T13:10:24;102323.78;;;20.91;33.42
69221;BME280;56331;51.992;20.910;2022-12-18T13:15:43;102327.09;;;20.90;32.92
69221;BME280;56331;51.992;20.910;2022-12-18T13:23:28;102338.17;;;20.90;32.96
69221;BME280;56331;51.992;20.910;2022-12-18T13:34:25;102341.25;;;20.89;32.14
69221;BME280;56331;51.992;20.910;2022-12-18T13:36:54;102346.78;;;20.89;32.20
69221;BME280;56331;51.992;20.910;2022-12-18T13:39:24;102347.34;;;20.88;32.13
69221;BME280;56331;51.992;20.910;2022-12-18T13:42:38;102339.30;;;20.89;31.92
69221;BME280;56331;51.992;20.910;2022-12-18T13:44:33;102345.41;;;20.89;31.77
69221;BME280;56331;51.992;20.910;2022-12-18T13:46:57;102341.25;;;20.89;31.98
69221;BME280;56331;51.992;20.910;2022-12-18T13:49:47;102343.19;;;20.88;32.06
69221;BME280;56331;51.992;20.910;2022-12-18T13:51:55;102346.78;;;20.89;32.06
69221;BME280;56331;51.992;20.910;2022-12-18T13:54:36;102345.96;;;20.88;32.04
69221;BME280;56331;51.992;20.910;2022-12-18T13:57:05;102343.19;;;20.88;31.95
69221;BME280;56331;51.992;20.910;2022-12-18T13:59:39;102345.96;;;20.88;31.65
69221;BME280;56331;51.992;20.910;2022-12-18T14:02:14;102353.71;;;20.89;31.68
69221;BME280;56331;51.992;20.910;2022-12-18T14:04:41;102354.53;;;20.89;31.41
69221;BME280;56331;51.992;20.910;2022-12-18T14:07:14;102362.59;;;20.88;31.40
69221;BME280;56331;51.992;20.910;2022-12-18T14:09:51;102360.64;;;20.89;31.40
69221;BME280;56331;51.992;20.910;2022-12-18T14:12:17;102354.53;;;20.89;31.38
69221;BME280;56331;51.992;20.910;2022-12-18T14:15:06;102357.05;;;20.88;31.46
69221;BME280;56331;51.992;20.910;2022-12-18T14:17:36;102357.58;;;20.88;31.48
69221;BME280;56331;51.992;20.910;2022-12-18T14:20:02;102370.61;;;20.87;31.46
69221;BME280;56331;51.992;20.910;2022-12-18T14:22:30;102381.41;;;20.89;31.51
69221;BME280;56331;51.992;20.910;2022-12-18T14:25:16;102383.63;;;20.89;31.64
69221;BME280;56331;51.992;20.910;2022-12-18T14:27:46;102384.75;;;20.88;31.54
69221;BME280;56331;51.992;20.910;2022-12-18T14:30:45;102379.20;;;20.88;31.37